createdAt,value
2022-10-19T00:01:25.581Z,3.88
2022-10-19T00:03:56.458Z,2.53
2022-10-19T00:06:32.555Z,3.22
2022-10-19T00:09:02.496Z,3.63
2022-10-19T00:11:31.958Z,4.60
2022-10-19T00:14:01.335Z,3.88
2022-10-19T00:16:31.211Z,2.58
2022-10-19T00:19:02.804Z,2.72
2022-10-19T00:21:31.487Z,4.22
2022-10-19T00:23:59.783Z,3.63
2022-10-19T00:26:29.723Z,5.80
2022-10-19T00:29:00.918Z,3.97
2022-10-19T00:31:30.136Z,2.95
2022-10-19T00:34:00.958Z,3.17
2022-10-19T00:36:31.843Z,2.83
2022-10-19T00:39:01.195Z,5.05
2022-10-19T00:41:31.610Z,3.88
2022-10-19T00:44:02.303Z,5.70
2022-10-19T00:46:33.319Z,2.72
2022-10-19T00:49:10.049Z,2.67
2022-10-19T00:51:42.155Z,2.97
2022-10-19T00:54:12.489Z,3.90
2022-10-19T00:56:43.988Z,4.13
2022-10-19T00:59:14.302Z,4.57
2022-10-19T01:01:44.328Z,4.57
2022-10-19T01:04:14.555Z,2.70
2022-10-19T01:06:43.110Z,3.30
2022-10-19T01:09:11.751Z,2.78
2022-10-19T01:11:47.753Z,4.20
2022-10-19T01:14:27.968Z,3.92
2022-10-19T01:17:05.453Z,3.90
2022-10-19T01:20:22.873Z,3.80
2022-10-19T01:23:06.428Z,5.45
2022-10-19T01:25:49.319Z,2.88
2022-10-19T01:28:33.664Z,2.55
2022-10-19T01:31:10.113Z,3.58
2022-10-19T01:33:46.878Z,7.95
2022-10-19T01:36:22.382Z,3.90
2022-10-19T01:38:55.619Z,6.38
2022-10-19T01:41:31.814Z,6.97
2022-10-19T01:44:04.750Z,7.85
2022-10-19T01:46:41.624Z,5.70
2022-10-19T01:49:14.703Z,3.45
2022-10-19T01:51:46.999Z,5.82
2022-10-19T01:54:17.878Z,3.50
2022-10-19T01:56:51.004Z,4.38
2022-10-19T01:59:22.019Z,3.63
2022-10-19T02:01:54.167Z,3.53
2022-10-19T02:04:24.695Z,2.33
2022-10-19T02:06:54.265Z,3.95
2022-10-19T02:09:22.727Z,4.30
2022-10-19T02:11:57.000Z,5.10
2022-10-19T02:14:30.327Z,2.92
2022-10-19T02:17:06.356Z,2.83
2022-10-19T02:19:35.488Z,3.97
2022-10-19T02:22:04.017Z,2.75
2022-10-19T02:24:32.342Z,4.57
2022-10-19T02:27:01.734Z,4.65
2022-10-19T02:29:31.296Z,3.10
2022-10-19T02:32:01.170Z,2.58
2022-10-19T02:34:29.479Z,3.30
2022-10-19T02:36:58.141Z,3.08
2022-10-19T02:39:26.656Z,3.08
2022-10-19T02:42:00.909Z,4.40
2022-10-19T02:44:33.056Z,3.13
2022-10-19T02:47:07.899Z,2.90
2022-10-19T02:49:37.624Z,5.68
2022-10-19T02:52:10.092Z,3.13
2022-10-19T02:54:38.904Z,3.88
2022-10-19T02:57:16.981Z,2.67
2022-10-19T02:59:45.065Z,4.75
2022-10-19T03:02:14.815Z,3.83
2022-10-19T03:04:44.232Z,3.22
2022-10-19T03:07:14.850Z,3.95
2022-10-19T03:09:43.554Z,2.95
2022-10-19T03:12:12.118Z,2.17
2022-10-19T03:14:40.385Z,3.35
2022-10-19T03:17:09.085Z,3.30
2022-10-19T03:19:39.324Z,3.13
2022-10-19T03:22:07.675Z,6.72
2022-10-19T03:24:35.924Z,6.05
2022-10-19T03:27:03.949Z,5.80
2022-10-19T03:29:32.463Z,4.57
2022-10-19T03:32:02.704Z,4.22
2022-10-19T03:34:33.326Z,5.00
2022-10-19T03:37:05.084Z,5.55
2022-10-19T03:39:33.252Z,6.40
2022-10-19T03:42:01.834Z,4.68
2022-10-19T03:44:29.756Z,3.17
2022-10-19T03:46:58.435Z,5.03
2022-10-19T03:49:26.803Z,3.97
2022-10-19T03:51:55.338Z,4.95
2022-10-19T03:54:27.341Z,4.78
2022-10-19T03:56:55.727Z,3.92
2022-10-19T03:59:26.110Z,3.92
2022-10-19T04:01:54.183Z,4.60
2022-10-19T04:04:22.236Z,5.60
2022-10-19T04:06:53.582Z,4.22
2022-10-19T04:09:23.985Z,5.13
2022-10-19T04:11:52.268Z,2.83
2022-10-19T04:14:32.122Z,2.60
2022-10-19T04:17:01.628Z,5.20
2022-10-19T04:19:29.982Z,5.57
2022-10-19T04:22:00.641Z,5.03
2022-10-19T04:24:30.183Z,4.63
2022-10-19T04:26:58.573Z,3.10
2022-10-19T04:29:29.856Z,4.00
2022-10-19T04:31:59.029Z,7.97
2022-10-19T04:34:26.915Z,3.88
2022-10-19T04:36:56.322Z,4.00
2022-10-19T04:39:26.783Z,5.38
2022-10-19T04:42:00.421Z,3.63
2022-10-19T04:44:32.199Z,5.38
2022-10-19T04:47:00.429Z,5.55
2022-10-19T04:49:28.511Z,5.43
2022-10-19T04:51:57.819Z,4.15
2022-10-19T04:54:25.895Z,4.90
2022-10-19T04:56:57.204Z,5.30
2022-10-19T04:59:29.713Z,5.88
2022-10-19T05:01:59.725Z,5.20
2022-10-19T05:04:29.552Z,3.97
2022-10-19T05:06:57.806Z,3.88
2022-10-19T05:09:26.204Z,3.05
2022-10-19T05:11:54.995Z,4.10
2022-10-19T05:14:25.748Z,3.95
2022-10-19T05:16:55.403Z,7.05
2022-10-19T05:19:23.389Z,4.03
2022-10-19T05:21:51.389Z,3.72
2022-10-19T05:24:19.418Z,3.20
2022-10-19T05:26:47.694Z,3.33
2022-10-19T05:29:16.470Z,3.15
2022-10-19T05:31:44.664Z,4.70
2022-10-19T05:34:14.181Z,5.25
2022-10-19T05:36:42.517Z,3.50
2022-10-19T05:39:14.366Z,4.78
2022-10-19T05:41:44.781Z,5.15
2022-10-19T05:44:16.277Z,3.58
2022-10-19T05:46:46.048Z,3.78
2022-10-19T05:49:16.615Z,4.93
2022-10-19T05:51:45.013Z,6.68
2022-10-19T05:54:14.137Z,5.00
2022-10-19T05:56:43.332Z,4.13
2022-10-19T05:59:15.705Z,5.55
2022-10-19T06:01:44.524Z,3.45
2022-10-19T06:04:14.107Z,6.85
2022-10-19T06:06:43.953Z,6.53
2022-10-19T06:09:12.675Z,5.80
2022-10-19T06:11:43.296Z,4.75
2022-10-19T06:14:14.419Z,4.22
2022-10-19T06:16:43.018Z,4.63
2022-10-19T06:19:11.045Z,3.20
2022-10-19T06:21:41.846Z,3.70
2022-10-19T06:24:14.655Z,5.85
2022-10-19T06:26:42.734Z,4.95
2022-10-19T06:29:11.362Z,3.92
2022-10-19T06:31:40.142Z,5.28
2022-10-19T06:34:08.468Z,4.95
2022-10-19T06:36:36.513Z,2.75
2022-10-19T06:39:05.024Z,4.60
2022-10-19T06:41:35.273Z,2.00
2022-10-19T06:44:03.222Z,3.20
2022-10-19T06:46:32.299Z,5.38
2022-10-19T06:49:02.478Z,3.17
2022-10-19T06:51:32.024Z,1.75
2022-10-19T06:54:00.023Z,1.27
2022-10-19T06:56:28.308Z,1.80
2022-10-19T06:58:58.809Z,2.50
2022-10-19T07:01:27.324Z,2.00
2022-10-19T07:03:55.633Z,4.10
2022-10-19T07:06:24.444Z,1.67
2022-10-19T07:08:53.678Z,3.00
2022-10-19T07:11:23.413Z,2.30
2022-10-19T07:13:53.048Z,2.55
2022-10-19T07:16:23.388Z,3.08
2022-10-19T07:18:53.181Z,2.50
2022-10-19T07:21:23.277Z,2.28
2022-10-19T07:23:51.853Z,1.65
2022-10-19T07:26:23.692Z,2.90
2022-10-19T07:28:52.178Z,3.20
2022-10-19T07:31:23.638Z,4.80
2022-10-19T07:33:54.283Z,2.40
2022-10-19T07:36:25.133Z,3.83
2022-10-19T07:38:53.608Z,4.88
2022-10-19T07:41:23.929Z,4.05
2022-10-19T07:43:52.820Z,3.15
2022-10-19T07:46:25.320Z,3.72
2022-10-19T07:48:53.596Z,3.65
2022-10-19T07:51:22.277Z,1.75
2022-10-19T07:53:51.059Z,2.35
2022-10-19T07:56:20.682Z,2.80
2022-10-19T07:58:51.449Z,2.85
2022-10-19T08:01:20.997Z,1.77
2022-10-19T08:06:40.599Z,2.78
2022-10-19T08:09:08.551Z,1.58
2022-10-19T08:11:37.796Z,2.35
2022-10-19T08:14:05.827Z,1.60
2022-10-19T08:16:37.362Z,2.28
2022-10-19T08:19:08.991Z,2.28
2022-10-19T08:21:38.121Z,2.60
2022-10-19T08:24:07.060Z,1.30
2022-10-19T08:26:37.858Z,2.83
2022-10-19T08:29:08.648Z,3.15
2022-10-19T08:31:37.082Z,2.53
2022-10-19T08:34:07.427Z,1.30
2022-10-19T08:36:35.841Z,2.10
2022-10-19T08:39:06.074Z,3.38
2022-10-19T08:41:39.054Z,2.78
2022-10-19T08:44:27.694Z,2.83
2022-10-19T08:47:06.092Z,2.78
2022-10-19T08:49:37.720Z,3.47
2022-10-19T08:52:11.680Z,2.03
2022-10-19T08:54:47.668Z,2.63
2022-10-19T08:57:26.350Z,4.30
2022-10-19T09:00:00.349Z,3.15
2022-10-19T09:02:42.456Z,3.53
2022-10-19T09:05:17.474Z,2.42
2022-10-19T09:07:47.588Z,2.50
2022-10-19T09:10:25.112Z,3.42
2022-10-19T09:12:58.836Z,2.38
2022-10-19T09:15:30.809Z,2.47
2022-10-19T09:17:58.980Z,3.17
2022-10-19T09:20:38.050Z,3.60
2022-10-19T09:23:15.948Z,2.75
2022-10-19T09:25:44.540Z,2.80
2022-10-19T09:28:33.992Z,3.20
2022-10-19T09:31:08.504Z,3.60
2022-10-19T09:33:40.417Z,3.60
2022-10-19T09:36:22.231Z,5.05
2022-10-19T09:38:51.980Z,5.40
2022-10-19T09:41:22.304Z,5.70
2022-10-19T09:43:54.879Z,5.55
2022-10-19T09:46:37.977Z,3.95
2022-10-19T09:49:07.149Z,2.15
2022-10-19T09:51:52.187Z,2.60
2022-10-19T09:54:32.870Z,4.53
2022-10-19T09:57:00.952Z,2.90
2022-10-19T09:59:32.041Z,2.88
2022-10-19T10:02:17.237Z,2.92
2022-10-19T10:04:48.373Z,3.03
2022-10-19T10:07:22.062Z,4.18
2022-10-19T10:09:50.013Z,4.03
2022-10-19T10:12:19.427Z,5.55
2022-10-19T10:14:47.793Z,3.85
2022-10-19T10:17:19.034Z,3.35
2022-10-19T10:20:03.927Z,2.67
2022-10-19T10:22:37.082Z,3.70
2022-10-19T10:25:16.965Z,2.33
2022-10-19T10:28:26.577Z,3.55
2022-10-19T10:31:00.683Z,3.35
2022-10-19T10:33:44.068Z,3.90
2022-10-19T10:36:13.842Z,3.95
2022-10-19T10:38:46.754Z,3.30
2022-10-19T10:41:17.718Z,4.57
2022-10-19T10:43:54.227Z,3.50
2022-10-19T10:46:25.909Z,2.17
2022-10-19T10:48:56.838Z,3.67
2022-10-19T10:51:31.669Z,3.30
2022-10-19T10:54:17.178Z,3.15
2022-10-19T10:56:46.831Z,3.63
2022-10-19T10:59:20.532Z,3.17
2022-10-19T11:02:00.002Z,4.70
2022-10-19T11:04:33.584Z,3.33
2022-10-19T11:07:08.483Z,5.00
2022-10-19T11:09:41.487Z,5.32
2022-10-19T11:12:14.901Z,4.88
2022-10-19T11:14:49.437Z,3.83
2022-10-19T11:17:21.897Z,3.67
2022-10-19T11:19:51.310Z,3.58
2022-10-19T11:22:27.342Z,4.25
2022-10-19T11:25:19.308Z,6.10
2022-10-19T11:27:57.704Z,5.40
2022-10-19T11:30:27.079Z,3.30
2022-10-19T11:33:02.324Z,4.15
2022-10-19T11:35:45.292Z,3.88
2022-10-19T11:38:29.824Z,4.35
2022-10-19T11:41:18.224Z,3.88
2022-10-19T11:43:57.187Z,3.65
2022-10-19T11:46:29.265Z,4.38
2022-10-19T11:49:13.276Z,2.90
2022-10-19T11:51:49.672Z,5.32
2022-10-19T11:54:33.063Z,3.90
2022-10-19T11:57:11.417Z,3.65
2022-10-19T12:00:14.965Z,4.25
2022-10-19T12:03:30.338Z,3.00
2022-10-19T12:06:16.339Z,4.57
2022-10-19T12:09:06.055Z,4.38
2022-10-19T12:11:50.561Z,3.55
2022-10-19T12:14:26.314Z,3.05
2022-10-19T12:16:59.124Z,3.20
2022-10-19T12:19:44.762Z,4.85
2022-10-19T12:22:30.707Z,3.65
2022-10-19T12:25:07.072Z,3.60
2022-10-19T12:27:41.530Z,3.28
2022-10-19T12:30:16.909Z,3.85
2022-10-19T12:32:58.399Z,3.03
2022-10-19T12:35:55.059Z,3.60
2022-10-19T12:38:31.571Z,3.72
2022-10-19T12:41:08.195Z,5.45
2022-10-19T12:43:44.901Z,3.42
2022-10-19T12:46:24.970Z,3.50
2022-10-19T12:49:41.478Z,3.33
2022-10-19T12:52:14.925Z,3.67
2022-10-19T12:54:51.434Z,3.80
2022-10-19T12:57:46.562Z,3.00
2022-10-19T13:00:22.125Z,2.75
2022-10-19T13:03:02.073Z,4.05
2022-10-19T13:05:36.446Z,2.78
2022-10-19T13:08:14.562Z,3.35
2022-10-19T13:11:21.305Z,3.53
2022-10-19T13:14:01.673Z,3.20
2022-10-19T13:17:03.532Z,2.75
2022-10-19T13:19:43.715Z,3.70
2022-10-19T13:22:30.225Z,2.53
2022-10-19T13:25:27.169Z,2.55
2022-10-19T13:27:58.917Z,3.47
2022-10-19T13:31:11.566Z,4.13
2022-10-19T13:33:54.050Z,3.30
2022-10-19T13:36:29.077Z,2.55
2022-10-19T13:39:29.982Z,3.33
2022-10-19T13:42:00.854Z,2.55
2022-10-19T13:44:35.316Z,3.03
2022-10-19T13:47:31.511Z,4.32
2022-10-19T13:50:24.423Z,2.88
2022-10-19T13:53:27.947Z,3.25
2022-10-19T13:56:20.408Z,3.95
2022-10-19T13:59:31.967Z,3.50
2022-10-19T14:02:23.674Z,2.80
2022-10-19T14:05:01.639Z,4.43
2022-10-19T14:07:40.767Z,2.47
2022-10-19T14:10:14.188Z,2.47
2022-10-19T14:12:45.508Z,2.45
2022-10-19T14:15:22.691Z,2.58
2022-10-19T14:17:50.928Z,2.90
2022-10-19T14:20:34.724Z,2.72
2022-10-19T14:23:20.954Z,3.45
2022-10-19T14:25:52.874Z,40.55
2022-10-19T14:28:23.293Z,35.83
2022-10-19T14:30:57.083Z,16.02
2022-10-19T14:33:26.010Z,14.30
2022-10-19T14:35:54.275Z,12.05
2022-10-19T14:38:29.291Z,12.65
2022-10-19T14:40:57.408Z,15.75
2022-10-19T14:43:28.606Z,12.52
2022-10-19T14:46:11.450Z,21.30
2022-10-19T14:48:40.865Z,22.10
2022-10-19T14:51:17.368Z,9.98
2022-10-19T14:53:49.629Z,9.77
2022-10-19T14:56:22.181Z,8.45
2022-10-19T14:58:56.456Z,9.23
2022-10-19T15:01:24.330Z,8.20
2022-10-19T15:03:52.786Z,10.57
2022-10-19T15:06:24.954Z,6.38
2022-10-19T15:08:55.188Z,3.63
2022-10-19T15:11:29.939Z,4.13
2022-10-19T15:14:04.852Z,9.43
2022-10-19T15:16:42.023Z,16.63
2022-10-19T15:19:19.646Z,10.13
2022-10-19T15:21:47.684Z,8.73
2022-10-19T15:24:26.990Z,8.75
2022-10-19T15:27:08.721Z,10.73
2022-10-19T15:29:40.391Z,18.48
2022-10-19T15:32:16.921Z,16.67
2022-10-19T15:34:50.162Z,13.25
2022-10-19T15:37:21.557Z,10.10
2022-10-19T15:39:52.047Z,10.38
2022-10-19T15:42:33.477Z,4.82
2022-10-19T15:45:04.026Z,11.18
2022-10-19T15:47:35.005Z,9.00
2022-10-19T15:50:05.604Z,5.88
2022-10-19T15:52:34.842Z,5.47
2022-10-19T15:55:03.347Z,7.57
2022-10-19T15:57:34.585Z,6.60
2022-10-19T16:00:14.024Z,7.40
2022-10-19T16:02:49.497Z,5.78
2022-10-19T16:05:18.011Z,7.15
2022-10-19T16:07:46.365Z,5.03
2022-10-19T16:10:17.666Z,6.22
2022-10-19T16:12:46.506Z,6.18
2022-10-19T16:15:22.231Z,6.57
2022-10-19T16:17:52.101Z,4.68
2022-10-19T16:20:20.240Z,5.38
2022-10-19T16:22:48.575Z,6.15
2022-10-19T16:25:16.661Z,5.53
2022-10-19T16:27:44.645Z,8.45
2022-10-19T16:30:15.034Z,4.80
2022-10-19T16:32:43.234Z,3.05
2022-10-19T16:35:12.245Z,7.07
2022-10-19T16:37:40.082Z,3.80
2022-10-19T16:40:09.489Z,3.63
2022-10-19T16:42:37.839Z,3.40
2022-10-19T16:45:06.346Z,2.60
2022-10-19T16:47:35.608Z,4.32
2022-10-19T16:50:06.085Z,4.88
2022-10-19T16:52:34.770Z,2.80
2022-10-19T16:55:03.205Z,2.20
2022-10-19T16:57:31.307Z,3.92
2022-10-19T16:59:59.408Z,3.00
2022-10-19T17:02:27.830Z,3.28
2022-10-19T17:04:57.256Z,4.28
2022-10-19T17:07:25.296Z,4.22
2022-10-19T17:09:54.932Z,3.83
2022-10-19T17:12:23.357Z,2.55
2022-10-19T17:14:51.453Z,3.25
2022-10-19T17:17:20.059Z,2.92
2022-10-19T17:19:48.817Z,4.20
2022-10-19T17:22:21.532Z,5.97
2022-10-19T17:24:49.619Z,3.53
2022-10-19T17:27:17.885Z,3.80
2022-10-19T17:29:46.044Z,3.08
2022-10-19T17:32:13.979Z,2.28
2022-10-19T17:34:42.377Z,1.65
2022-10-19T17:37:11.440Z,2.25
2022-10-19T17:39:40.875Z,2.50
2022-10-19T17:42:08.890Z,3.08
2022-10-19T17:44:37.106Z,3.75
2022-10-19T17:47:05.143Z,2.78
2022-10-19T17:49:33.173Z,1.88
2022-10-19T17:52:01.357Z,2.78
2022-10-19T17:54:29.868Z,1.27
2022-10-19T17:57:02.551Z,2.13
2022-10-19T17:59:46.610Z,2.38
2022-10-19T18:02:19.031Z,1.98
2022-10-19T18:04:47.003Z,2.15
2022-10-19T18:07:15.132Z,2.35
2022-10-19T18:09:43.048Z,2.53
2022-10-19T18:12:13.395Z,2.75
2022-10-19T18:14:41.503Z,3.70
2022-10-19T18:17:11.933Z,2.10
2022-10-19T18:19:40.170Z,2.20
2022-10-19T18:22:08.495Z,2.45
2022-10-19T18:24:36.883Z,2.15
2022-10-19T18:27:06.802Z,4.00
2022-10-19T18:29:36.482Z,3.38
2022-10-19T18:34:37.913Z,2.13
2022-10-19T18:37:07.245Z,2.55
2022-10-19T18:39:35.917Z,2.53
2022-10-19T18:42:04.288Z,2.17
2022-10-19T18:44:33.717Z,2.97
2022-10-19T18:47:03.912Z,2.20
2022-10-19T18:49:32.024Z,2.53
2022-10-19T18:52:00.077Z,1.73
2022-10-19T18:54:28.301Z,2.00
2022-10-19T18:56:57.187Z,2.33
2022-10-19T18:59:25.213Z,2.05
2022-10-19T19:01:53.300Z,2.30
2022-10-19T19:04:23.050Z,3.55
2022-10-19T19:06:51.373Z,2.65
2022-10-19T19:09:19.560Z,1.90
2022-10-19T19:11:48.170Z,2.90
2022-10-19T19:14:18.649Z,4.32
2022-10-19T19:16:47.082Z,3.00
2022-10-19T19:19:16.561Z,2.17
2022-10-19T19:21:46.948Z,3.67
2022-10-19T19:24:17.303Z,2.90
2022-10-19T19:26:48.430Z,2.15
2022-10-19T19:29:18.911Z,2.50
2022-10-19T19:31:47.268Z,3.10
2022-10-19T19:34:15.203Z,2.35
2022-10-19T19:36:47.684Z,2.03
2022-10-19T19:39:19.886Z,2.75
2022-10-19T19:41:48.486Z,3.63
2022-10-19T19:44:16.568Z,2.80
2022-10-19T19:46:44.429Z,2.80
2022-10-19T19:49:12.675Z,2.10
2022-10-19T19:51:40.571Z,3.50
2022-10-19T19:54:08.496Z,2.40
2022-10-19T19:56:39.187Z,2.70
2022-10-19T19:59:07.081Z,3.05
2022-10-19T20:01:36.684Z,2.88
2022-10-19T20:04:05.998Z,2.10
2022-10-19T20:06:35.337Z,2.58
2022-10-19T20:09:03.256Z,3.30
2022-10-19T20:11:31.854Z,3.38
2022-10-19T20:14:08.241Z,2.25
2022-10-19T20:16:36.905Z,2.75
2022-10-19T20:19:08.467Z,2.00
2022-10-19T20:21:36.377Z,2.60
2022-10-19T20:24:04.817Z,2.75
2022-10-19T20:26:33.024Z,2.13
2022-10-19T20:29:02.961Z,2.05
2022-10-19T20:31:33.302Z,2.88
2022-10-19T20:34:01.490Z,2.65
2022-10-19T20:36:29.340Z,1.98
2022-10-19T20:38:58.804Z,1.83
2022-10-19T20:41:28.492Z,2.78
2022-10-19T20:43:56.807Z,2.17
2022-10-19T20:46:27.680Z,1.83
2022-10-19T20:48:56.849Z,2.83
2022-10-19T20:51:30.747Z,2.45
2022-10-19T20:54:01.887Z,3.00
2022-10-19T20:56:33.142Z,2.28
2022-10-19T21:01:39.454Z,3.17
2022-10-19T21:04:09.232Z,3.15
2022-10-19T21:06:39.923Z,4.53
2022-10-19T21:09:09.038Z,1.90
2022-10-19T21:11:38.932Z,2.47
2022-10-19T21:14:08.371Z,2.20
2022-10-19T21:16:38.644Z,4.57
2022-10-19T21:19:10.561Z,2.47
2022-10-19T21:21:40.359Z,2.30
2022-10-19T21:24:11.168Z,3.97
2022-10-19T21:26:39.988Z,2.35
2022-10-19T21:29:09.801Z,3.03
2022-10-19T21:31:44.032Z,2.50
2022-10-19T21:34:15.917Z,2.15
2022-10-19T21:36:44.041Z,4.60
2022-10-19T21:39:11.975Z,2.90
2022-10-19T21:41:39.976Z,3.38
2022-10-19T21:44:07.906Z,2.47
2022-10-19T21:46:35.943Z,2.30
2022-10-19T21:49:05.261Z,3.65
2022-10-19T21:51:36.407Z,2.60
2022-10-19T21:54:06.166Z,2.95
2022-10-19T21:56:35.547Z,2.28
2022-10-19T21:59:03.678Z,3.05
2022-10-19T22:01:37.207Z,3.22
2022-10-19T22:04:13.114Z,2.78
2022-10-19T22:06:41.674Z,3.75
2022-10-19T22:09:12.720Z,2.30
2022-10-19T22:11:40.694Z,2.85
2022-10-19T22:14:08.605Z,2.65
2022-10-19T22:16:37.147Z,2.58
2022-10-19T22:19:06.185Z,2.30
2022-10-19T22:24:12.908Z,2.85
2022-10-19T22:26:43.397Z,3.17
2022-10-19T22:29:11.291Z,2.50
2022-10-19T22:31:40.035Z,3.65
2022-10-19T22:34:10.158Z,2.65
2022-10-19T22:36:39.459Z,2.63
2022-10-19T22:39:08.182Z,2.40
2022-10-19T22:41:36.084Z,2.83
2022-10-19T22:44:04.185Z,2.90
2022-10-19T22:46:32.362Z,2.80
2022-10-19T22:49:00.470Z,2.25
2022-10-19T22:51:28.854Z,2.83
2022-10-19T22:53:58.182Z,2.72
2022-10-19T22:56:26.081Z,2.17
2022-10-19T22:58:54.070Z,3.47
2022-10-19T23:01:22.054Z,3.00
2022-10-19T23:03:50.064Z,2.60
2022-10-19T23:06:18.538Z,2.38
2022-10-19T23:08:46.765Z,3.95
2022-10-19T23:11:16.894Z,2.17
2022-10-19T23:13:44.902Z,2.88
2022-10-19T23:16:12.802Z,2.92
2022-10-19T23:18:41.933Z,2.53
2022-10-19T23:21:12.505Z,2.80
2022-10-19T23:23:41.742Z,3.25
2022-10-19T23:26:12.370Z,4.18
2022-10-19T23:28:43.469Z,2.83
2022-10-19T23:31:13.840Z,5.03
2022-10-19T23:33:42.802Z,2.28
2022-10-19T23:36:14.357Z,3.30
2022-10-19T23:38:42.920Z,2.15
2022-10-19T23:41:11.226Z,2.50
2022-10-19T23:43:39.341Z,2.58
2022-10-19T23:46:09.065Z,4.45
2022-10-19T23:48:37.509Z,3.15
2022-10-19T23:51:08.252Z,3.60
2022-10-19T23:53:40.837Z,2.15
2022-10-19T23:56:11.458Z,3.08
2022-10-19T23:58:39.355Z,2.45
